AJB502 SACO-SAME
Flight info
| Callsign | AJB502 |
|---|---|
| Flight time | 1h 17m |
| Altitude | 22000 |
| Route | ALDEX1C ALDEX UL531 SALBO SALBO1U |
| Aircraft | AT76/M-SDFGIRY/S |
Departure
| Time | 2026-05-05 19:31 |
|---|---|
| Airport | Ingeniero Aeronáutico Ambrosio L.V. Taravella International Airport (SACO) |
Arrival
| Time | 2026-05-05 20:48 |
|---|---|
| Airport | Governor Francisco Gabrielli International Airport (SAME) |
| Time | Latitude | Longitude | Altitude | Speed | Heading |
|---|---|---|---|---|---|
| 2026-05-05 18:55 | -31.31655 | -64.21179 | 1609 ft | 0 kts | 269° |
| 2026-05-05 19:18 | -31.31655 | -64.21172 | 1615 ft | 1 kts | 269° |
| 2026-05-05 19:18 | -31.31655 | -64.21164 | 1613 ft | 1 kts | 269° |
| 2026-05-05 19:18 | -31.31655 | -64.21155 | 1609 ft | 1 kts | 270° |
| 2026-05-05 19:19 | -31.31655 | -64.21146 | 1609 ft | 1 kts | 270° |
| 2026-05-05 19:19 | -31.31655 | -64.21138 | 1609 ft | 1 kts | 270° |
| 2026-05-05 19:19 | -31.31655 | -64.21129 | 1609 ft | 1 kts | 270° |
| 2026-05-05 19:19 | -31.31655 | -64.21121 | 1609 ft | 1 kts | 270° |
| 2026-05-05 19:20 | -31.31655 | -64.21113 | 1609 ft | 1 kts | 257° |
| 2026-05-05 19:20 | -31.31653 | -64.21107 | 1609 ft | 1 kts | 223° |
| 2026-05-05 19:20 | -31.31649 | -64.21104 | 1609 ft | 1 kts | 197° |
| 2026-05-05 19:20 | -31.31646 | -64.21102 | 1617 ft | 1 kts | 188° |
| 2026-05-05 19:21 | -31.31642 | -64.21102 | 1616 ft | 0 kts | 184° |
| 2026-05-05 19:21 | -31.31639 | -64.21102 | 1618 ft | 0 kts | 182° |
| 2026-05-05 19:21 | -31.31636 | -64.21102 | 1617 ft | 1 kts | 180° |
| 2026-05-05 19:21 | -31.31634 | -64.21102 | 1617 ft | 0 kts | 180° |
| 2026-05-05 19:23 | -31.31635 | -64.21102 | 1609 ft | 1 kts | 180° |
| 2026-05-05 19:23 | -31.31644 | -64.21102 | 1616 ft | 2 kts | 180° |
| 2026-05-05 19:23 | -31.31657 | -64.21102 | 1613 ft | 2 kts | 180° |
| 2026-05-05 19:23 | -31.31672 | -64.21102 | 1609 ft | 2 kts | 180° |
| 2026-05-05 19:24 | -31.31690 | -64.21102 | 1609 ft | 3 kts | 180° |
| 2026-05-05 19:24 | -31.31711 | -64.21099 | 1613 ft | 3 kts | 166° |
| 2026-05-05 19:24 | -31.31732 | -64.21085 | 1612 ft | 4 kts | 144° |
| 2026-05-05 19:24 | -31.31754 | -64.21062 | 1609 ft | 5 kts | 142° |
| 2026-05-05 19:25 | -31.31781 | -64.21039 | 1609 ft | 5 kts | 148° |
| 2026-05-05 19:25 | -31.31814 | -64.21030 | 1609 ft | 5 kts | 175° |
| 2026-05-05 19:25 | -31.31850 | -64.21028 | 1616 ft | 5 kts | 179° |
| 2026-05-05 19:25 | -31.31889 | -64.21028 | 1609 ft | 6 kts | 179° |
| 2026-05-05 19:26 | -31.31940 | -64.21027 | 1612 ft | 7 kts | 179° |
| 2026-05-05 19:26 | -31.31990 | -64.21026 | 1611 ft | 7 kts | 180° |
| 2026-05-05 19:26 | -31.32040 | -64.21026 | 1615 ft | 7 kts | 180° |
| 2026-05-05 19:26 | -31.32090 | -64.21026 | 1613 ft | 7 kts | 179° |
| 2026-05-05 19:27 | -31.32141 | -64.21024 | 1611 ft | 7 kts | 178° |
| 2026-05-05 19:27 | -31.32191 | -64.21022 | 1616 ft | 7 kts | 178° |
| 2026-05-05 19:27 | -31.32239 | -64.21021 | 1614 ft | 7 kts | 181° |
| 2026-05-05 19:27 | -31.32287 | -64.21022 | 1615 ft | 7 kts | 181° |
| 2026-05-05 19:28 | -31.32322 | -64.21022 | 1611 ft | 1 kts | 179° |
| 2026-05-05 19:28 | -31.32334 | -64.21021 | 1613 ft | 3 kts | 178° |
| 2026-05-05 19:28 | -31.32378 | -64.21017 | 1611 ft | 7 kts | 169° |
| 2026-05-05 19:28 | -31.32416 | -64.20987 | 1610 ft | 7 kts | 127° |
| 2026-05-05 19:29 | -31.32435 | -64.20933 | 1610 ft | 9 kts | 98° |
| 2026-05-05 19:29 | -31.32411 | -64.20856 | 1610 ft | 13 kts | 47° |
| 2026-05-05 19:29 | -31.32325 | -64.20817 | 1608 ft | 16 kts | 1° |
| 2026-05-05 19:29 | -31.32074 | -64.20819 | 1612 ft | 57 kts | 359° |
| 2026-05-05 19:30 | -31.31495 | -64.20829 | 1615 ft | 107 kts | 358° |
| 2026-05-05 19:30 | -31.30624 | -64.20844 | 1620 ft | 141 kts | 359° |
| 2026-05-05 19:30 | -31.29593 | -64.20854 | 1873 ft | 154 kts | 358° |
| 2026-05-05 19:30 | -31.28462 | -64.20876 | 2114 ft | 176 kts | 359° |
| 2026-05-05 19:31 | -31.27215 | -64.20890 | 2545 ft | 181 kts | 1° |
| 2026-05-05 19:31 | -31.25980 | -64.20896 | 3105 ft | 172 kts | 1° |
| 2026-05-05 19:31 | -31.24839 | -64.20899 | 3701 ft | 158 kts | 2° |
| 2026-05-05 19:31 | -31.23719 | -64.20863 | 3878 ft | 173 kts | 1° |
| 2026-05-05 19:32 | -31.22479 | -64.20885 | 4105 ft | 181 kts | 359° |
| 2026-05-05 19:32 | -31.21223 | -64.20930 | 4451 ft | 180 kts | 359° |
| 2026-05-05 19:32 | -31.19966 | -64.20969 | 4776 ft | 181 kts | 358° |
| 2026-05-05 19:32 | -31.18808 | -64.21488 | 5052 ft | 183 kts | 323° |
| 2026-05-05 19:33 | -31.17828 | -64.22449 | 5350 ft | 185 kts | 321° |
| 2026-05-05 19:33 | -31.16852 | -64.23436 | 5674 ft | 186 kts | 320° |
| 2026-05-05 19:33 | -31.15876 | -64.24427 | 6047 ft | 183 kts | 320° |
| 2026-05-05 19:33 | -31.14923 | -64.25367 | 6463 ft | 178 kts | 322° |
| 2026-05-05 19:34 | -31.13981 | -64.26307 | 6778 ft | 179 kts | 309° |
| 2026-05-05 19:34 | -31.13680 | -64.27675 | 7068 ft | 181 kts | 259° |
| 2026-05-05 19:34 | -31.14367 | -64.28877 | 7334 ft | 182 kts | 219° |
| 2026-05-05 19:35 | -31.16385 | -64.30698 | 7954 ft | 183 kts | 219° |
| 2026-05-05 19:35 | -31.17378 | -64.31629 | 8254 ft | 183 kts | 223° |
| 2026-05-05 19:35 | -31.18303 | -64.32636 | 8562 ft | 182 kts | 227° |
| 2026-05-05 19:35 | -31.19145 | -64.33734 | 8863 ft | 181 kts | 232° |
| 2026-05-05 19:36 | -31.19904 | -64.34904 | 9135 ft | 181 kts | 236° |
| 2026-05-05 19:36 | -31.20593 | -64.36132 | 9416 ft | 181 kts | 239° |
| 2026-05-05 19:36 | -31.21265 | -64.37379 | 9694 ft | 181 kts | 239° |
| 2026-05-05 19:36 | -31.21942 | -64.38626 | 9930 ft | 181 kts | 239° |
| 2026-05-05 19:37 | -31.22610 | -64.39877 | 10171 ft | 182 kts | 239° |
| 2026-05-05 19:37 | -31.23286 | -64.41124 | 10405 ft | 182 kts | 238° |
| 2026-05-05 19:37 | -31.23737 | -64.41946 | 10554 ft | 181 kts | 239° |
| 2026-05-05 19:37 | -31.24644 | -64.43589 | 10905 ft | 181 kts | 239° |
| 2026-05-05 19:38 | -31.25324 | -64.44830 | 11174 ft | 181 kts | 239° |
| 2026-05-05 19:38 | -31.26004 | -64.46072 | 11418 ft | 183 kts | 239° |
| 2026-05-05 19:38 | -31.26478 | -64.46940 | 11418 ft | 192 kts | 239° |
| 2026-05-05 19:38 | -31.27201 | -64.48268 | 11574 ft | 195 kts | 239° |
| 2026-05-05 19:39 | -31.27935 | -64.49602 | 11794 ft | 195 kts | 239° |
| 2026-05-05 19:39 | -31.28666 | -64.50934 | 11986 ft | 195 kts | 239° |
| 2026-05-05 19:39 | -31.29400 | -64.52266 | 12199 ft | 195 kts | 239° |
| 2026-05-05 19:39 | -31.30134 | -64.53595 | 12427 ft | 194 kts | 239° |
| 2026-05-05 19:40 | -31.30860 | -64.54904 | 12630 ft | 195 kts | 239° |
| 2026-05-05 19:40 | -31.31600 | -64.56232 | 12825 ft | 195 kts | 239° |
| 2026-05-05 19:40 | -31.32344 | -64.57577 | 13033 ft | 194 kts | 240° |
| 2026-05-05 19:40 | -31.33076 | -64.58906 | 13230 ft | 195 kts | 240° |
| 2026-05-05 19:41 | -31.33800 | -64.60227 | 13396 ft | 196 kts | 240° |
| 2026-05-05 19:41 | -31.34535 | -64.61565 | 13605 ft | 196 kts | 240° |
| 2026-05-05 19:41 | -31.35265 | -64.62907 | 13796 ft | 195 kts | 240° |
| 2026-05-05 19:41 | -31.35998 | -64.64241 | 13967 ft | 195 kts | 241° |
| 2026-05-05 19:42 | -31.36728 | -64.65572 | 14134 ft | 194 kts | 242° |
| 2026-05-05 19:42 | -31.37452 | -64.66905 | 14288 ft | 194 kts | 241° |
| 2026-05-05 19:42 | -31.38173 | -64.68237 | 14441 ft | 195 kts | 241° |
| 2026-05-05 19:42 | -31.38885 | -64.69584 | 14634 ft | 195 kts | 241° |
| 2026-05-05 19:43 | -31.39614 | -64.70923 | 14816 ft | 195 kts | 241° |
| 2026-05-05 19:43 | -31.40351 | -64.72252 | 14981 ft | 195 kts | 240° |
| 2026-05-05 19:43 | -31.41090 | -64.73578 | 15103 ft | 195 kts | 241° |
| 2026-05-05 19:43 | -31.41824 | -64.74910 | 15264 ft | 194 kts | 241° |
| 2026-05-05 19:44 | -31.42554 | -64.76241 | 15422 ft | 194 kts | 241° |
| 2026-05-05 19:44 | -31.43281 | -64.77570 | 15596 ft | 194 kts | 241° |
| 2026-05-05 19:44 | -31.44011 | -64.78914 | 15676 ft | 197 kts | 241° |
| 2026-05-05 19:44 | -31.44747 | -64.80265 | 15831 ft | 195 kts | 241° |
| 2026-05-05 19:45 | -31.45478 | -64.81604 | 16006 ft | 195 kts | 242° |
| 2026-05-05 19:45 | -31.46205 | -64.82940 | 16165 ft | 195 kts | 242° |
| 2026-05-05 19:45 | -31.46934 | -64.84277 | 16331 ft | 194 kts | 242° |
| 2026-05-05 19:45 | -31.47662 | -64.85616 | 16484 ft | 195 kts | 242° |
| 2026-05-05 19:46 | -31.48389 | -64.86952 | 16637 ft | 195 kts | 242° |
| 2026-05-05 19:46 | -31.49118 | -64.88290 | 16812 ft | 195 kts | 242° |
| 2026-05-05 19:46 | -31.49846 | -64.89628 | 16981 ft | 195 kts | 242° |
| 2026-05-05 19:46 | -31.50573 | -64.90964 | 17153 ft | 195 kts | 242° |
| 2026-05-05 19:47 | -31.51303 | -64.92306 | 17333 ft | 195 kts | 242° |
| 2026-05-05 19:47 | -31.52032 | -64.93645 | 17489 ft | 195 kts | 243° |
| 2026-05-05 19:47 | -31.52760 | -64.94989 | 17652 ft | 195 kts | 243° |
| 2026-05-05 19:47 | -31.53490 | -64.96332 | 17823 ft | 195 kts | 243° |
| 2026-05-05 19:48 | -31.54220 | -64.97677 | 17993 ft | 196 kts | 243° |
| 2026-05-05 19:48 | -31.54919 | -64.99020 | 18137 ft | 195 kts | 244° |
| 2026-05-05 19:48 | -31.55626 | -65.00381 | 18242 ft | 196 kts | 243° |
| 2026-05-05 19:48 | -31.56355 | -65.01729 | 18352 ft | 196 kts | 242° |
| 2026-05-05 19:49 | -31.57113 | -65.03061 | 18451 ft | 196 kts | 242° |
| 2026-05-05 19:49 | -31.57861 | -65.04399 | 18553 ft | 196 kts | 243° |
| 2026-05-05 19:49 | -31.58593 | -65.05749 | 18655 ft | 196 kts | 243° |
| 2026-05-05 19:49 | -31.59327 | -65.07100 | 18745 ft | 196 kts | 243° |
| 2026-05-05 19:50 | -31.60059 | -65.08451 | 18830 ft | 196 kts | 243° |
| 2026-05-05 19:50 | -31.60792 | -65.09805 | 18921 ft | 197 kts | 243° |
| 2026-05-05 19:50 | -31.61525 | -65.11160 | 19004 ft | 197 kts | 243° |
| 2026-05-05 19:50 | -31.62259 | -65.12516 | 19104 ft | 197 kts | 243° |
| 2026-05-05 19:51 | -31.62993 | -65.13876 | 19221 ft | 197 kts | 244° |
| 2026-05-05 19:51 | -31.63728 | -65.15238 | 19305 ft | 198 kts | 244° |
| 2026-05-05 19:51 | -31.64463 | -65.16599 | 19414 ft | 197 kts | 243° |
| 2026-05-05 19:51 | -31.65203 | -65.17959 | 19520 ft | 197 kts | 243° |
| 2026-05-05 19:52 | -31.65942 | -65.19318 | 19632 ft | 198 kts | 243° |
| 2026-05-05 19:52 | -31.66582 | -65.20726 | 19687 ft | 195 kts | 252° |
| 2026-05-05 19:52 | -31.67064 | -65.22215 | 19801 ft | 194 kts | 254° |
| 2026-05-05 19:52 | -31.67520 | -65.23707 | 19915 ft | 194 kts | 254° |
| 2026-05-05 19:53 | -31.67983 | -65.25201 | 20044 ft | 195 kts | 254° |
| 2026-05-05 19:53 | -31.68467 | -65.26689 | 20161 ft | 195 kts | 253° |
| 2026-05-05 19:53 | -31.68967 | -65.28166 | 20266 ft | 195 kts | 253° |
| 2026-05-05 19:53 | -31.69474 | -65.29643 | 20364 ft | 195 kts | 252° |
| 2026-05-05 19:54 | -31.69985 | -65.31122 | 20445 ft | 195 kts | 253° |
| 2026-05-05 19:54 | -31.70500 | -65.32593 | 20541 ft | 195 kts | 252° |
| 2026-05-05 19:54 | -31.71017 | -65.34066 | 20628 ft | 195 kts | 252° |
| 2026-05-05 19:54 | -31.71538 | -65.35540 | 20702 ft | 195 kts | 252° |
| 2026-05-05 19:55 | -31.72054 | -65.37013 | 20776 ft | 196 kts | 252° |
| 2026-05-05 19:55 | -31.72568 | -65.38494 | 20967 ft | 196 kts | 253° |
| 2026-05-05 19:55 | -31.73081 | -65.39976 | 21146 ft | 196 kts | 253° |
| 2026-05-05 19:55 | -31.73593 | -65.41456 | 21320 ft | 196 kts | 253° |
| 2026-05-05 19:56 | -31.74105 | -65.42942 | 21491 ft | 196 kts | 253° |
| 2026-05-05 19:56 | -31.74614 | -65.44430 | 21657 ft | 196 kts | 253° |
| 2026-05-05 19:56 | -31.75127 | -65.45931 | 21755 ft | 201 kts | 253° |
| 2026-05-05 19:56 | -31.75658 | -65.47483 | 21801 ft | 208 kts | 253° |
| 2026-05-05 19:57 | -31.76204 | -65.49084 | 21820 ft | 214 kts | 253° |
| 2026-05-05 19:57 | -31.76763 | -65.50728 | 21828 ft | 219 kts | 253° |
| 2026-05-05 19:57 | -31.77337 | -65.52413 | 21831 ft | 224 kts | 253° |
| 2026-05-05 19:57 | -31.77920 | -65.54127 | 21832 ft | 227 kts | 253° |
| 2026-05-05 19:58 | -31.78509 | -65.55858 | 21829 ft | 230 kts | 253° |
| 2026-05-05 19:58 | -31.79108 | -65.57615 | 21829 ft | 231 kts | 253° |
| 2026-05-05 19:58 | -31.79702 | -65.59355 | 21829 ft | 228 kts | 253° |
| 2026-05-05 19:58 | -31.80282 | -65.61057 | 21827 ft | 226 kts | 253° |
| 2026-05-05 19:59 | -31.80864 | -65.62765 | 21826 ft | 225 kts | 253° |
| 2026-05-05 19:59 | -31.81443 | -65.64466 | 21827 ft | 223 kts | 253° |
| 2026-05-05 19:59 | -31.82018 | -65.66152 | 21828 ft | 222 kts | 253° |
| 2026-05-05 19:59 | -31.82590 | -65.67833 | 21823 ft | 221 kts | 253° |
| 2026-05-05 20:00 | -31.83159 | -65.69506 | 21822 ft | 220 kts | 253° |
| 2026-05-05 20:00 | -31.83725 | -65.71172 | 21823 ft | 219 kts | 253° |
| 2026-05-05 20:00 | -31.84291 | -65.72838 | 21825 ft | 219 kts | 253° |
| 2026-05-05 20:00 | -31.84853 | -65.74498 | 21822 ft | 218 kts | 253° |
| 2026-05-05 20:01 | -31.85415 | -65.76152 | 21818 ft | 218 kts | 253° |
| 2026-05-05 20:01 | -31.85976 | -65.77809 | 21820 ft | 217 kts | 254° |
| 2026-05-05 20:01 | -31.86534 | -65.79460 | 21824 ft | 217 kts | 254° |
| 2026-05-05 20:01 | -31.87091 | -65.81107 | 21821 ft | 217 kts | 253° |
| 2026-05-05 20:02 | -31.87648 | -65.82753 | 21823 ft | 217 kts | 253° |
| 2026-05-05 20:02 | -31.88205 | -65.84399 | 21821 ft | 217 kts | 253° |
| 2026-05-05 20:02 | -31.88761 | -65.86044 | 21824 ft | 216 kts | 253° |
| 2026-05-05 20:02 | -31.89317 | -65.87689 | 21819 ft | 216 kts | 254° |
| 2026-05-05 20:03 | -31.89872 | -65.89336 | 21817 ft | 216 kts | 254° |
| 2026-05-05 20:03 | -31.90426 | -65.90976 | 21820 ft | 216 kts | 254° |
| 2026-05-05 20:03 | -31.90981 | -65.92622 | 21820 ft | 216 kts | 254° |
| 2026-05-05 20:03 | -31.91535 | -65.94265 | 21817 ft | 216 kts | 254° |
| 2026-05-05 20:04 | -31.92089 | -65.95908 | 21819 ft | 216 kts | 254° |
| 2026-05-05 20:04 | -31.92647 | -65.97549 | 21817 ft | 216 kts | 254° |
| 2026-05-05 20:04 | -31.93203 | -65.99191 | 21822 ft | 216 kts | 254° |
| 2026-05-05 20:04 | -31.93753 | -66.00836 | 21819 ft | 216 kts | 255° |
| 2026-05-05 20:05 | -31.94292 | -66.02485 | 21817 ft | 216 kts | 254° |
| 2026-05-05 20:05 | -31.94838 | -66.04125 | 21820 ft | 216 kts | 254° |
| 2026-05-05 20:05 | -31.95389 | -66.05771 | 21819 ft | 216 kts | 254° |
| 2026-05-05 20:05 | -31.95940 | -66.07413 | 21817 ft | 216 kts | 254° |
| 2026-05-05 20:06 | -31.96491 | -66.09056 | 21819 ft | 216 kts | 254° |
| 2026-05-05 20:06 | -31.97040 | -66.10696 | 21816 ft | 216 kts | 254° |
| 2026-05-05 20:06 | -31.97591 | -66.12346 | 21815 ft | 216 kts | 254° |
| 2026-05-05 20:06 | -31.98141 | -66.13990 | 21815 ft | 216 kts | 254° |
| 2026-05-05 20:07 | -31.98692 | -66.15638 | 21811 ft | 216 kts | 254° |
| 2026-05-05 20:07 | -31.99244 | -66.17282 | 21811 ft | 216 kts | 254° |
| 2026-05-05 20:07 | -31.99798 | -66.18929 | 21810 ft | 216 kts | 254° |
| 2026-05-05 20:07 | -32.00348 | -66.20573 | 21811 ft | 216 kts | 254° |
| 2026-05-05 20:08 | -32.00897 | -66.22221 | 21816 ft | 216 kts | 254° |
| 2026-05-05 20:08 | -32.01445 | -66.23866 | 21810 ft | 216 kts | 254° |
| 2026-05-05 20:08 | -32.01995 | -66.25513 | 21808 ft | 216 kts | 254° |
| 2026-05-05 20:08 | -32.02543 | -66.27160 | 21809 ft | 216 kts | 254° |
| 2026-05-05 20:09 | -32.03083 | -66.28789 | 21809 ft | 216 kts | 254° |
| 2026-05-05 20:09 | -32.03631 | -66.30436 | 21806 ft | 216 kts | 254° |
| 2026-05-05 20:09 | -32.04180 | -66.32085 | 21807 ft | 216 kts | 254° |
| 2026-05-05 20:09 | -32.04734 | -66.33753 | 21807 ft | 216 kts | 254° |
| 2026-05-05 20:10 | -32.05274 | -66.35383 | 21807 ft | 216 kts | 254° |
| 2026-05-05 20:10 | -32.05822 | -66.37032 | 21808 ft | 216 kts | 254° |
| 2026-05-05 20:10 | -32.06371 | -66.38686 | 21806 ft | 217 kts | 254° |
| 2026-05-05 20:10 | -32.06919 | -66.40338 | 21804 ft | 217 kts | 254° |
| 2026-05-05 20:11 | -32.07468 | -66.41995 | 21807 ft | 217 kts | 254° |
| 2026-05-05 20:11 | -32.08017 | -66.43652 | 21806 ft | 217 kts | 254° |
| 2026-05-05 20:11 | -32.08566 | -66.45310 | 21804 ft | 217 kts | 254° |
| 2026-05-05 20:11 | -32.09115 | -66.46970 | 21798 ft | 217 kts | 254° |
| 2026-05-05 20:12 | -32.09667 | -66.48630 | 21803 ft | 218 kts | 254° |
| 2026-05-05 20:12 | -32.10222 | -66.50293 | 21799 ft | 218 kts | 254° |
| 2026-05-05 20:12 | -32.10775 | -66.51951 | 21799 ft | 218 kts | 255° |
| 2026-05-05 20:12 | -32.11310 | -66.53621 | 21798 ft | 218 kts | 255° |
| 2026-05-05 20:13 | -32.11856 | -66.55288 | 21800 ft | 218 kts | 254° |
| 2026-05-05 20:13 | -32.12405 | -66.56953 | 21802 ft | 218 kts | 254° |
| 2026-05-05 20:13 | -32.12956 | -66.58623 | 21800 ft | 218 kts | 254° |
| 2026-05-05 20:13 | -32.13506 | -66.60288 | 21797 ft | 218 kts | 254° |
| 2026-05-05 20:14 | -32.14055 | -66.61954 | 21795 ft | 218 kts | 254° |
| 2026-05-05 20:14 | -32.14603 | -66.63619 | 21795 ft | 218 kts | 254° |
| 2026-05-05 20:14 | -32.15151 | -66.65284 | 21793 ft | 217 kts | 254° |
| 2026-05-05 20:14 | -32.15698 | -66.66946 | 21794 ft | 217 kts | 255° |
| 2026-05-05 20:15 | -32.16246 | -66.68608 | 21797 ft | 217 kts | 254° |
| 2026-05-05 20:15 | -32.16796 | -66.70267 | 21795 ft | 217 kts | 255° |
| 2026-05-05 20:15 | -32.17343 | -66.71923 | 21798 ft | 217 kts | 255° |
| 2026-05-05 20:15 | -32.17890 | -66.73584 | 21798 ft | 217 kts | 255° |
| 2026-05-05 20:16 | -32.18437 | -66.75247 | 21793 ft | 217 kts | 255° |
| 2026-05-05 20:16 | -32.18984 | -66.76909 | 21794 ft | 217 kts | 255° |
| 2026-05-05 20:16 | -32.19529 | -66.78571 | 21793 ft | 217 kts | 255° |
| 2026-05-05 20:16 | -32.20074 | -66.80231 | 21793 ft | 217 kts | 255° |
| 2026-05-05 20:17 | -32.20617 | -66.81889 | 21795 ft | 217 kts | 255° |
| 2026-05-05 20:17 | -32.21162 | -66.83552 | 21794 ft | 217 kts | 255° |
| 2026-05-05 20:17 | -32.21697 | -66.85185 | 21797 ft | 216 kts | 255° |
| 2026-05-05 20:17 | -32.22240 | -66.86844 | 21796 ft | 216 kts | 255° |
| 2026-05-05 20:18 | -32.22782 | -66.88500 | 21797 ft | 216 kts | 255° |
| 2026-05-05 20:18 | -32.23322 | -66.90154 | 21798 ft | 216 kts | 255° |
| 2026-05-05 20:18 | -32.23865 | -66.91815 | 21802 ft | 216 kts | 255° |
| 2026-05-05 20:18 | -32.24406 | -66.93472 | 21795 ft | 217 kts | 255° |
| 2026-05-05 20:19 | -32.24948 | -66.95130 | 21801 ft | 216 kts | 255° |
| 2026-05-05 20:19 | -32.25489 | -66.96791 | 21800 ft | 216 kts | 255° |
| 2026-05-05 20:19 | -32.26029 | -66.98444 | 21796 ft | 216 kts | 255° |
| 2026-05-05 20:19 | -32.26570 | -67.00100 | 21802 ft | 216 kts | 255° |
| 2026-05-05 20:20 | -32.27112 | -67.01760 | 21805 ft | 216 kts | 255° |
| 2026-05-05 20:20 | -32.27652 | -67.03421 | 21800 ft | 217 kts | 255° |
| 2026-05-05 20:20 | -32.28193 | -67.05087 | 21804 ft | 217 kts | 255° |
| 2026-05-05 20:20 | -32.28736 | -67.06754 | 21801 ft | 218 kts | 255° |
| 2026-05-05 20:21 | -32.29279 | -67.08424 | 21799 ft | 218 kts | 255° |
| 2026-05-05 20:21 | -32.29821 | -67.10091 | 21801 ft | 218 kts | 255° |
| 2026-05-05 20:21 | -32.30364 | -67.11764 | 21798 ft | 218 kts | 255° |
| 2026-05-05 20:21 | -32.30905 | -67.13433 | 21799 ft | 218 kts | 255° |
| 2026-05-05 20:22 | -32.31449 | -67.15106 | 21802 ft | 217 kts | 255° |
| 2026-05-05 20:22 | -32.31988 | -67.16772 | 21798 ft | 218 kts | 255° |
| 2026-05-05 20:22 | -32.32531 | -67.18444 | 21798 ft | 218 kts | 255° |
| 2026-05-05 20:22 | -32.33071 | -67.20117 | 21800 ft | 218 kts | 255° |
| 2026-05-05 20:23 | -32.33615 | -67.21793 | 21793 ft | 218 kts | 255° |
| 2026-05-05 20:23 | -32.34156 | -67.23469 | 21795 ft | 218 kts | 255° |
| 2026-05-05 20:23 | -32.34697 | -67.25145 | 21793 ft | 218 kts | 255° |
| 2026-05-05 20:23 | -32.35239 | -67.26818 | 21795 ft | 218 kts | 255° |
| 2026-05-05 20:24 | -32.35779 | -67.28490 | 21798 ft | 218 kts | 255° |
| 2026-05-05 20:24 | -32.36319 | -67.30165 | 21795 ft | 218 kts | 255° |
| 2026-05-05 20:24 | -32.36860 | -67.31837 | 21797 ft | 218 kts | 255° |
| 2026-05-05 20:24 | -32.37400 | -67.33510 | 21797 ft | 218 kts | 255° |
| 2026-05-05 20:25 | -32.37757 | -67.34619 | 21798 ft | 218 kts | 255° |
| 2026-05-05 20:25 | -32.38478 | -67.36856 | 21802 ft | 218 kts | 255° |
| 2026-05-05 20:25 | -32.39017 | -67.38535 | 21803 ft | 218 kts | 255° |
| 2026-05-05 20:25 | -32.39373 | -67.39642 | 21798 ft | 218 kts | 255° |
| 2026-05-05 20:26 | -32.39913 | -67.41319 | 21800 ft | 218 kts | 255° |
| 2026-05-05 20:26 | -32.40452 | -67.42999 | 21799 ft | 218 kts | 255° |
| 2026-05-05 20:26 | -32.40990 | -67.44673 | 21800 ft | 218 kts | 255° |
| 2026-05-05 20:26 | -32.41531 | -67.46353 | 21799 ft | 218 kts | 255° |
| 2026-05-05 20:27 | -32.42069 | -67.48027 | 21796 ft | 218 kts | 255° |
| 2026-05-05 20:27 | -32.42608 | -67.49709 | 21796 ft | 218 kts | 255° |
| 2026-05-05 20:27 | -32.43147 | -67.51392 | 21797 ft | 219 kts | 255° |
| 2026-05-05 20:27 | -32.43686 | -67.53075 | 21797 ft | 219 kts | 255° |
| 2026-05-05 20:28 | -32.44224 | -67.54757 | 21799 ft | 219 kts | 255° |
| 2026-05-05 20:28 | -32.44765 | -67.56445 | 21801 ft | 219 kts | 256° |
| 2026-05-05 20:28 | -32.45303 | -67.58128 | 21801 ft | 219 kts | 256° |
| 2026-05-05 20:28 | -32.45842 | -67.59814 | 21805 ft | 219 kts | 255° |
| 2026-05-05 20:29 | -32.46381 | -67.61502 | 21805 ft | 219 kts | 256° |
| 2026-05-05 20:29 | -32.46913 | -67.63166 | 21810 ft | 219 kts | 256° |
| 2026-05-05 20:29 | -32.47453 | -67.64854 | 21804 ft | 219 kts | 256° |
| 2026-05-05 20:29 | -32.47993 | -67.66547 | 21804 ft | 220 kts | 255° |
| 2026-05-05 20:30 | -32.48531 | -67.68238 | 21806 ft | 220 kts | 256° |
| 2026-05-05 20:30 | -32.49072 | -67.69933 | 21810 ft | 220 kts | 255° |
| 2026-05-05 20:30 | -32.49617 | -67.71647 | 21808 ft | 220 kts | 255° |
| 2026-05-05 20:30 | -32.50157 | -67.73343 | 21809 ft | 220 kts | 255° |
| 2026-05-05 20:31 | -32.50700 | -67.75033 | 21809 ft | 220 kts | 255° |
| 2026-05-05 20:31 | -32.51246 | -67.76728 | 21811 ft | 219 kts | 256° |
| 2026-05-05 20:31 | -32.51586 | -67.78431 | 21813 ft | 214 kts | 267° |
| 2026-05-05 20:31 | -32.51730 | -67.80215 | 21810 ft | 215 kts | 269° |
| 2026-05-05 20:32 | -32.51851 | -67.81960 | 21706 ft | 219 kts | 269° |
| 2026-05-05 20:32 | -32.51985 | -67.83831 | 21395 ft | 231 kts | 268° |
| 2026-05-05 20:32 | -32.52157 | -67.85732 | 21079 ft | 240 kts | 267° |
| 2026-05-05 20:32 | -32.52371 | -67.87732 | 20750 ft | 248 kts | 266° |
| 2026-05-05 20:33 | -32.52592 | -67.89788 | 20413 ft | 255 kts | 266° |
| 2026-05-05 20:33 | -32.52815 | -67.91896 | 20070 ft | 261 kts | 266° |
| 2026-05-05 20:33 | -32.53042 | -67.94053 | 19719 ft | 266 kts | 266° |
| 2026-05-05 20:33 | -32.53271 | -67.96238 | 19372 ft | 270 kts | 266° |
| 2026-05-05 20:34 | -32.53504 | -67.98459 | 19024 ft | 273 kts | 266° |
| 2026-05-05 20:34 | -32.53738 | -68.00701 | 18677 ft | 274 kts | 266° |
| 2026-05-05 20:34 | -32.53970 | -68.02926 | 18326 ft | 270 kts | 266° |
| 2026-05-05 20:34 | -32.54202 | -68.05125 | 17969 ft | 267 kts | 266° |
| 2026-05-05 20:35 | -32.54428 | -68.07303 | 17582 ft | 265 kts | 266° |
| 2026-05-05 20:35 | -32.54653 | -68.09465 | 17206 ft | 264 kts | 266° |
| 2026-05-05 20:35 | -32.54876 | -68.11616 | 16838 ft | 263 kts | 266° |
| 2026-05-05 20:35 | -32.55099 | -68.13772 | 16471 ft | 263 kts | 266° |
| 2026-05-05 20:36 | -32.55321 | -68.15918 | 16112 ft | 262 kts | 266° |
| 2026-05-05 20:36 | -32.55543 | -68.18061 | 15752 ft | 262 kts | 266° |
| 2026-05-05 20:36 | -32.55764 | -68.20210 | 15393 ft | 262 kts | 266° |
| 2026-05-05 20:36 | -32.55984 | -68.22359 | 15043 ft | 263 kts | 266° |
| 2026-05-05 20:37 | -32.56204 | -68.24508 | 14699 ft | 263 kts | 266° |
| 2026-05-05 20:37 | -32.56426 | -68.26666 | 14358 ft | 264 kts | 266° |
| 2026-05-05 20:37 | -32.56647 | -68.28826 | 14015 ft | 265 kts | 266° |
| 2026-05-05 20:37 | -32.56868 | -68.30997 | 13670 ft | 266 kts | 266° |
| 2026-05-05 20:38 | -32.57090 | -68.33173 | 13293 ft | 266 kts | 266° |
| 2026-05-05 20:38 | -32.57312 | -68.35352 | 12909 ft | 267 kts | 266° |
| 2026-05-05 20:38 | -32.57534 | -68.37544 | 12531 ft | 268 kts | 266° |
| 2026-05-05 20:38 | -32.57758 | -68.39747 | 12154 ft | 269 kts | 266° |
| 2026-05-05 20:39 | -32.57976 | -68.41894 | 11790 ft | 270 kts | 266° |
| 2026-05-05 20:39 | -32.58200 | -68.44116 | 11418 ft | 272 kts | 266° |
| 2026-05-05 20:39 | -32.58424 | -68.46341 | 11049 ft | 273 kts | 266° |
| 2026-05-05 20:39 | -32.58650 | -68.48578 | 10678 ft | 274 kts | 266° |
| 2026-05-05 20:40 | -32.58875 | -68.50824 | 10313 ft | 275 kts | 266° |
| 2026-05-05 20:40 | -32.59103 | -68.53073 | 9950 ft | 276 kts | 266° |
| 2026-05-05 20:40 | -32.59328 | -68.55337 | 9561 ft | 277 kts | 266° |
| 2026-05-05 20:40 | -32.59552 | -68.57561 | 9276 ft | 258 kts | 266° |
| 2026-05-05 20:41 | -32.59753 | -68.59545 | 8979 ft | 228 kts | 266° |
| 2026-05-05 20:41 | -32.59933 | -68.61327 | 8615 ft | 209 kts | 266° |
| 2026-05-05 20:41 | -32.60104 | -68.62984 | 8219 ft | 198 kts | 265° |
| 2026-05-05 20:41 | -32.60271 | -68.64574 | 7808 ft | 191 kts | 265° |
| 2026-05-05 20:42 | -32.60454 | -68.66109 | 7376 ft | 185 kts | 257° |
| 2026-05-05 20:42 | -32.60932 | -68.67537 | 6938 ft | 189 kts | 248° |
| 2026-05-05 20:42 | -32.61500 | -68.68937 | 6534 ft | 188 kts | 246° |
| 2026-05-05 20:42 | -32.62048 | -68.70309 | 6318 ft | 177 kts | 246° |
| 2026-05-05 20:43 | -32.62565 | -68.71617 | 6197 ft | 175 kts | 246° |
| 2026-05-05 20:43 | -32.63065 | -68.72938 | 6063 ft | 176 kts | 247° |
| 2026-05-05 20:43 | -32.63549 | -68.74281 | 5945 ft | 178 kts | 248° |
| 2026-05-05 20:43 | -32.64035 | -68.75636 | 5818 ft | 181 kts | 247° |
| 2026-05-05 20:44 | -32.64537 | -68.77029 | 5686 ft | 186 kts | 247° |
| 2026-05-05 20:44 | -32.65149 | -68.78381 | 5484 ft | 186 kts | 226° |
| 2026-05-05 20:44 | -32.66238 | -68.78992 | 5267 ft | 174 kts | 190° |
| 2026-05-05 20:44 | -32.67451 | -68.79152 | 5046 ft | 173 kts | 181° |
| 2026-05-05 20:45 | -32.69835 | -68.79166 | 4643 ft | 172 kts | 176° |
| 2026-05-05 20:45 | -32.71047 | -68.79137 | 4413 ft | 172 kts | 176° |
| 2026-05-05 20:45 | -32.72229 | -68.79120 | 4202 ft | 172 kts | 178° |
| 2026-05-05 20:46 | -32.73401 | -68.79128 | 4027 ft | 163 kts | 177° |
| 2026-05-05 20:46 | -32.74511 | -68.79149 | 3879 ft | 158 kts | 177° |
| 2026-05-05 20:46 | -32.75611 | -68.79168 | 3675 ft | 158 kts | 177° |
| 2026-05-05 20:46 | -32.76706 | -68.79177 | 3430 ft | 155 kts | 177° |
| 2026-05-05 20:47 | -32.77776 | -68.79188 | 3205 ft | 152 kts | 178° |
| 2026-05-05 20:47 | -32.78808 | -68.79206 | 2996 ft | 145 kts | 179° |
| 2026-05-05 20:47 | -32.79793 | -68.79231 | 2804 ft | 138 kts | 178° |
| 2026-05-05 20:47 | -32.80727 | -68.79232 | 2638 ft | 133 kts | 179° |
| 2026-05-05 20:48 | -32.81660 | -68.79260 | 2465 ft | 134 kts | 178° |
| 2026-05-05 20:48 | -32.82548 | -68.79261 | 2399 ft | 117 kts | 175° |
| 2026-05-05 20:48 | -32.83279 | -68.79293 | 2393 ft | 92 kts | 179° |
| 2026-05-05 20:48 | -32.83587 | -68.79301 | 2392 ft | 31 kts | 181° |
| 2026-05-05 20:49 | -32.83776 | -68.79304 | 2395 ft | 24 kts | 181° |
| 2026-05-05 20:49 | -32.83919 | -68.79310 | 2392 ft | 17 kts | 181° |
| 2026-05-05 20:49 | -32.84026 | -68.79310 | 2394 ft | 14 kts | 179° |
| 2026-05-05 20:49 | -32.84065 | -68.79367 | 2394 ft | 11 kts | 269° |
| 2026-05-05 20:50 | -32.84049 | -68.79473 | 2393 ft | 14 kts | 279° |
| 2026-05-05 20:50 | -32.84014 | -68.79531 | 2395 ft | 8 kts | 351° |
| 2026-05-05 20:50 | -32.83958 | -68.79531 | 2397 ft | 8 kts | 1° |
| 2026-05-05 20:50 | -32.83900 | -68.79529 | 2393 ft | 8 kts | 360° |
| 2026-05-05 20:51 | -32.83839 | -68.79529 | 2393 ft | 9 kts | 0° |
| 2026-05-05 20:51 | -32.83776 | -68.79529 | 2392 ft | 9 kts | 0° |
| 2026-05-05 20:51 | -32.83711 | -68.79528 | 2394 ft | 9 kts | 1° |
| 2026-05-05 20:51 | -32.83645 | -68.79526 | 2392 ft | 10 kts | 1° |
| 2026-05-05 20:52 | -32.83579 | -68.79524 | 2392 ft | 9 kts | 2° |
| 2026-05-05 20:52 | -32.83513 | -68.79521 | 2395 ft | 9 kts | 2° |
| 2026-05-05 20:52 | -32.83448 | -68.79518 | 2395 ft | 9 kts | 359° |
| 2026-05-05 20:52 | -32.83383 | -68.79519 | 2393 ft | 9 kts | 0° |
| 2026-05-05 20:53 | -32.83318 | -68.79519 | 2392 ft | 9 kts | 360° |
| 2026-05-05 20:53 | -32.83253 | -68.79519 | 2393 ft | 10 kts | 0° |
| 2026-05-05 20:53 | -32.83187 | -68.79516 | 2393 ft | 9 kts | 2° |
| 2026-05-05 20:53 | -32.83125 | -68.79513 | 2394 ft | 9 kts | 1° |
| 2026-05-05 20:54 | -32.83065 | -68.79512 | 2393 ft | 9 kts | 1° |
| 2026-05-05 20:54 | -32.83006 | -68.79545 | 2395 ft | 10 kts | 321° |
| 2026-05-05 20:54 | -32.82958 | -68.79592 | 2393 ft | 8 kts | 320° |
| 2026-05-05 20:54 | -32.82932 | -68.79643 | 2391 ft | 7 kts | 280° |
| 2026-05-05 20:55 | -32.82929 | -68.79691 | 2392 ft | 4 kts | 279° |
| 2026-05-05 20:55 | -32.82917 | -68.79707 | 2390 ft | 2 kts | 329° |
| 2026-05-05 20:55 | -32.82899 | -68.79711 | 2390 ft | 3 kts | 359° |
| 2026-05-05 20:55 | -32.82876 | -68.79710 | 2392 ft | 3 kts | 1° |
| 2026-05-05 20:56 | -32.82853 | -68.79710 | 2394 ft | 3 kts | 359° |
| 2026-05-05 20:56 | -32.82839 | -68.79728 | 2394 ft | 4 kts | 283° |
| 2026-05-05 20:56 | -32.82839 | -68.79767 | 2393 ft | 4 kts | 270° |
| 2026-05-05 20:56 | -32.82839 | -68.79777 | 2395 ft | 0 kts | 269° |
| 2026-05-05 20:57 | -32.82839 | -68.79782 | 2394 ft | 1 kts | 269° |
| 2026-05-05 20:57 | -32.82839 | -68.79783 | 2394 ft | 0 kts | 268° |